Time;durP1;ratioP1;P1;durP2;ratioP2;P2;SDS_P1;SDS_P2;PMS_P1;PMS_P2;Temp;Humidity;BMP_temperature;BMP_pressure;BME280_temperature;BME280_humidity;BME280_pressure;Samples;Min_cycle;Max_cycle;Signal;HPM_P1;HPM_P2
2022/07/02 00:00:51;;;;;;;3.72;2.60;;;14.80;99.90;;;;;;4996961;28;20084;-74
2022/07/02 00:03:23;;;;;;;8.38;3.30;;;14.80;99.90;;;;;;5014902;28;20042;-73
2022/07/02 00:05:56;;;;;;;3.10;2.58;;;14.70;99.90;;;;;;5014786;28;20045;-74
2022/07/02 00:08:23;;;;;;;5.50;2.53;;;14.70;99.90;;;;;;5014813;28;20030;-74
2022/07/02 00:10:51;;;;;;;3.60;3.13;;;14.70;99.90;;;;;;5014258;28;20053;-74
2022/07/02 00:13:21;;;;;;;5.20;2.92;;;14.70;99.90;;;;;;5013549;28;20063;-72
2022/07/02 00:15:47;;;;;;;4.93;2.83;;;14.70;99.90;;;;;;5014772;28;20030;-73
2022/07/02 00:18:13;;;;;;;5.30;2.63;;;14.60;99.90;;;;;;5014620;28;20084;-73
2022/07/02 00:20:42;;;;;;;5.15;3.00;;;14.60;99.90;;;;;;5014237;28;20046;-72
2022/07/02 00:23:08;;;;;;;6.32;2.60;;;14.60;99.90;;;;;;5013483;28;20391;-73
2022/07/02 00:25:40;;;;;;;3.33;3.03;;;14.50;99.90;;;;;;5013109;28;20037;-74
2022/07/02 00:28:06;;;;;;;4.93;2.83;;;14.50;99.90;;;;;;5013049;28;20403;-73
2022/07/02 00:30:32;;;;;;;3.80;2.75;;;14.50;99.90;;;;;;5014043;28;20029;-74
2022/07/02 00:33:00;;;;;;;3.53;2.35;;;14.40;99.90;;;;;;5012856;28;20038;-73
2022/07/02 00:35:26;;;;;;;6.28;2.72;;;14.40;99.90;;;;;;5014174;28;20046;-73
2022/07/02 00:37:53;;;;;;;4.70;2.47;;;14.40;99.90;;;;;;5014020;28;20048;-73
2022/07/02 00:40:19;;;;;;;4.63;2.55;;;14.30;99.90;;;;;;5012510;28;20037;-73
2022/07/02 00:42:46;;;;;;;4.47;2.95;;;14.30;99.90;;;;;;5044792;23;20045;-68
2022/07/02 00:45:12;;;;;;;4.53;2.65;;;14.30;99.90;;;;;;5033804;28;20069;-67
2022/07/02 00:47:41;;;;;;;4.75;2.97;;;14.30;99.90;;;;;;5033704;28;20064;-67
2022/07/02 00:50:07;;;;;;;5.05;3.17;;;14.30;99.90;;;;;;5033217;28;20083;-68
2022/07/02 00:52:34;;;;;;;5.03;2.50;;;14.20;99.90;;;;;;5058158;28;20100;-67
2022/07/02 00:55:00;;;;;;;4.05;2.78;;;14.30;99.90;;;;;;5013649;28;20407;-67
2022/07/02 00:57:25;;;;;;;5.25;2.63;;;14.20;99.90;;;;;;5045831;28;20046;-67
2022/07/02 00:59:51;;;;;;;5.72;3.03;;;14.20;99.90;;;;;;5013406;28;20087;-67
2022/07/02 01:02:22;;;;;;;4.88;2.90;;;14.20;99.90;;;;;;5013536;28;20127;-67
2022/07/02 01:04:49;;;;;;;6.85;2.90;;;14.10;99.90;;;;;;5013475;28;20419;-67
2022/07/02 01:07:16;;;;;;;5.03;3.70;;;14.10;99.90;;;;;;5013475;28;20037;-69
2022/07/02 01:12:33;;;;;;;6.03;3.10;;;14.00;99.90;;;;;;5013340;28;20050;-69
2022/07/02 01:14:59;;;;;;;7.22;3.75;;;14.00;99.90;;;;;;5013435;28;20038;-69
2022/07/02 01:17:24;;;;;;;8.32;3.85;;;14.00;99.90;;;;;;5013070;28;20038;-69
2022/07/02 01:19:50;;;;;;;6.85;3.72;;;13.90;99.90;;;;;;5012953;28;20041;-69
2022/07/02 01:22:22;;;;;;;6.10;3.33;;;13.90;99.90;;;;;;5013129;28;20045;-69
2022/07/02 01:24:50;;;;;;;8.73;4.33;;;13.90;99.90;;;;;;5013204;28;20041;-69
2022/07/02 01:27:17;;;;;;;4.28;3.25;;;13.80;99.90;;;;;;5013156;28;20096;-69
2022/07/02 01:29:44;;;;;;;6.18;3.50;;;13.80;99.90;;;;;;5012826;28;20067;-69
2022/07/02 01:32:10;;;;;;;4.47;3.58;;;13.80;99.90;;;;;;5013124;28;20053;-69
2022/07/02 01:34:39;;;;;;;7.30;4.32;;;13.80;99.90;;;;;;5012998;28;20037;-69
2022/07/02 01:37:10;;;;;;;6.45;4.25;;;13.80;99.90;;;;;;5013181;28;20045;-69
2022/07/02 01:39:38;;;;;;;7.68;4.03;;;13.80;99.90;;;;;;5012661;28;20116;-69
2022/07/02 01:42:05;;;;;;;5.45;3.45;;;13.80;99.90;;;;;;5012715;28;20041;-69
2022/07/02 01:44:30;;;;;;;3.75;3.03;;;13.80;99.90;;;;;;5012811;28;20042;-69
2022/07/02 01:46:56;;;;;;;5.40;4.07;;;13.70;99.90;;;;;;5012878;28;20095;-69
2022/07/02 01:49:22;;;;;;;4.88;3.60;;;13.70;99.90;;;;;;5012559;28;20116;-69
2022/07/02 01:51:47;;;;;;;5.75;3.78;;;13.70;99.90;;;;;;5012726;28;20458;-69
2022/07/02 01:54:13;;;;;;;4.03;3.60;;;13.60;99.90;;;;;;5012768;28;20034;-69
2022/07/02 01:56:39;;;;;;;9.48;4.00;;;13.60;99.90;;;;;;5012718;28;20042;-69
2022/07/02 01:59:05;;;;;;;7.10;3.55;;;13.60;99.90;;;;;;5012532;28;20518;-69
2022/07/02 02:01:31;;;;;;;4.40;3.55;;;13.70;99.90;;;;;;5012649;28;20042;-69
2022/07/02 02:03:57;;;;;;;5.30;3.60;;;13.60;99.90;;;;;;5012600;28;20046;-69
2022/07/02 02:06:23;;;;;;;6.72;3.70;;;13.60;99.90;;;;;;5012487;28;20042;-69
2022/07/02 02:08:49;;;;;;;5.82;3.20;;;13.60;99.90;;;;;;5012507;28;20364;-69
2022/07/02 02:11:15;;;;;;;5.35;3.80;;;13.60;99.90;;;;;;5012080;28;20376;-69
2022/07/02 02:13:40;;;;;;;6.53;4.07;;;13.60;99.90;;;;;;5012279;28;20044;-69
2022/07/02 02:16:06;;;;;;;6.93;4.53;;;13.60;99.90;;;;;;5012415;28;20037;-69
2022/07/02 02:18:32;;;;;;;6.47;3.90;;;13.50;99.90;;;;;;5012465;28;20061;-69
2022/07/02 02:20:57;;;;;;;6.65;3.78;;;13.50;99.90;;;;;;5012152;28;20394;-69
2022/07/02 02:23:23;;;;;;;5.45;3.60;;;13.40;99.90;;;;;;5012253;28;20038;-69
2022/07/02 02:25:49;;;;;;;8.45;4.25;;;13.50;99.90;;;;;;5012332;28;20038;-69
2022/07/02 02:28:14;;;;;;;8.27;3.88;;;13.40;99.90;;;;;;5012101;28;20038;-69
2022/07/02 02:30:40;;;;;;;5.97;3.92;;;13.40;99.90;;;;;;5012055;28;20088;-69
2022/07/02 02:33:06;;;;;;;6.97;3.63;;;13.40;99.90;;;;;;5012300;28;20077;-69
2022/07/02 02:35:31;;;;;;;4.78;3.75;;;13.40;99.90;;;;;;5012226;28;20109;-68
2022/07/02 02:37:57;;;;;;;7.20;3.75;;;13.40;99.90;;;;;;5012101;28;20036;-69
2022/07/02 02:40:22;;;;;;;7.10;3.33;;;13.40;99.90;;;;;;5011828;28;20511;-69
2022/07/02 02:42:48;;;;;;;8.30;3.75;;;13.30;99.90;;;;;;5011785;28;20384;-69
2022/07/02 02:45:14;;;;;;;6.80;3.20;;;13.30;99.90;;;;;;5011826;28;20068;-69
2022/07/02 02:47:40;;;;;;;8.00;3.13;;;13.30;99.90;;;;;;5010781;28;20120;-69
2022/07/02 02:50:06;;;;;;;9.27;3.67;;;13.30;99.90;;;;;;5011623;28;20525;-68
2022/07/02 02:52:32;;;;;;;6.22;3.75;;;13.40;99.90;;;;;;5011927;28;20053;-69
2022/07/02 02:54:58;;;;;;;7.07;3.50;;;13.40;99.90;;;;;;5011993;28;20410;-69
2022/07/02 02:57:23;;;;;;;8.90;3.55;;;13.50;99.90;;;;;;5011866;28;20119;-69
2022/07/02 02:59:49;;;;;;;9.45;4.22;;;13.50;99.90;;;;;;5011791;28;20033;-69
2022/07/02 03:02:14;;;;;;;9.48;3.83;;;13.50;99.90;;;;;;5011922;28;20042;-69
2022/07/02 03:04:40;;;;;;;6.78;4.25;;;13.50;99.90;;;;;;5011742;28;20034;-69
2022/07/02 03:07:05;;;;;;;5.55;3.65;;;13.50;99.90;;;;;;5010545;28;20096;-69
2022/07/02 03:09:31;;;;;;;5.40;3.75;;;13.50;99.90;;;;;;5011511;28;20414;-69
2022/07/02 03:11:56;;;;;;;7.13;4.10;;;13.50;99.90;;;;;;5011591;28;20052;-69
2022/07/02 03:14:22;;;;;;;4.70;3.83;;;13.40;99.90;;;;;;5011767;28;20046;-69
2022/07/02 03:16:47;;;;;;;6.80;3.75;;;13.40;99.90;;;;;;5011899;28;20545;-69
2022/07/02 03:19:13;;;;;;;6.30;3.75;;;13.40;99.90;;;;;;5011380;28;20442;-68
2022/07/02 03:21:39;;;;;;;5.68;3.75;;;13.40;99.90;;;;;;5011586;28;20040;-69
2022/07/02 03:24:04;;;;;;;7.22;3.60;;;13.40;99.90;;;;;;5011580;28;20053;-69
2022/07/02 03:26:30;;;;;;;7.75;4.05;;;13.30;99.90;;;;;;5011576;28;20471;-69
2022/07/02 03:28:55;;;;;;;5.32;3.90;;;13.30;99.90;;;;;;5011605;28;20431;-69
2022/07/02 03:31:21;;;;;;;6.05;3.97;;;13.30;99.90;;;;;;5011447;28;20076;-69
2022/07/02 03:33:47;;;;;;;7.95;4.18;;;13.30;99.90;;;;;;5011569;28;20042;-69
2022/07/02 03:36:12;;;;;;;9.32;4.70;;;13.20;99.90;;;;;;5011523;28;20042;-69
2022/07/02 03:38:39;;;;;;;7.00;4.95;;;13.20;99.90;;;;;;5011541;28;20041;-69
2022/07/02 03:41:06;;;;;;;7.15;5.28;;;13.30;99.90;;;;;;5011182;28;20046;-69
2022/07/02 03:43:32;;;;;;;7.47;4.65;;;13.30;99.90;;;;;;5011378;28;20074;-68
2022/07/02 03:45:58;;;;;;;6.80;4.53;;;13.20;99.90;;;;;;5011642;28;20046;-69
2022/07/02 03:48:23;;;;;;;11.05;5.18;;;13.20;99.90;;;;;;5011501;28;20448;-69
2022/07/02 03:50:49;;;;;;;6.80;4.47;;;13.20;99.90;;;;;;5011183;28;20494;-69
2022/07/02 03:53:14;;;;;;;9.45;5.55;;;13.20;99.90;;;;;;5011540;28;20077;-69
2022/07/02 03:55:40;;;;;;;7.93;4.55;;;13.30;99.90;;;;;;5011359;28;20034;-69
2022/07/02 03:58:06;;;;;;;9.48;5.15;;;13.30;99.90;;;;;;5014089;28;20042;-69
2022/07/02 04:00:31;;;;;;;10.20;4.60;;;13.30;99.90;;;;;;5014722;28;20486;-69
2022/07/02 04:02:57;;;;;;;7.07;5.22;;;13.30;99.90;;;;;;5014901;28;20048;-69
2022/07/02 04:05:22;;;;;;;10.57;5.35;;;13.30;99.90;;;;;;5013741;28;20372;-69
2022/07/02 04:07:48;;;;;;;7.15;5.00;;;13.30;99.90;;;;;;5014710;28;20106;-69
2022/07/02 04:10:13;;;;;;;10.40;4.78;;;13.30;99.90;;;;;;5014280;28;20045;-69
2022/07/02 04:12:39;;;;;;;5.68;4.90;;;13.30;99.90;;;;;;5014676;28;20042;-69
2022/07/02 04:15:05;;;;;;;8.57;4.68;;;13.40;99.90;;;;;;5014749;28;20093;-69
2022/07/02 04:17:30;;;;;;;8.63;5.05;;;13.40;99.90;;;;;;5013177;28;20061;-69
2022/07/02 04:19:56;;;;;;;7.43;4.85;;;13.50;99.90;;;;;;5014259;28;20045;-69
2022/07/02 04:22:22;;;;;;;9.82;5.05;;;13.50;99.90;;;;;;5014314;28;20107;-70
2022/07/02 04:24:48;;;;;;;14.35;5.10;;;13.60;99.90;;;;;;5013235;28;20399;-69
2022/07/02 04:27:14;;;;;;;8.43;5.05;;;13.60;99.90;;;;;;5014487;28;20483;-69
2022/07/02 04:29:40;;;;;;;9.63;5.28;;;13.70;99.90;;;;;;5014046;28;20499;-69
2022/07/02 04:32:06;;;;;;;11.80;5.80;;;13.70;99.90;;;;;;5014166;28;20056;-68
2022/07/02 04:34:32;;;;;;;8.77;5.30;;;13.70;99.90;;;;;;5014105;28;20029;-69
2022/07/02 04:36:57;;;;;;;10.32;5.57;;;13.80;99.90;;;;;;5012980;28;20045;-69
2022/07/02 04:39:23;;;;;;;7.72;4.82;;;13.90;99.90;;;;;;5012569;28;20070;-68
2022/07/02 04:41:48;;;;;;;9.18;5.47;;;13.90;99.90;;;;;;5013937;28;20104;-69
2022/07/02 04:44:14;;;;;;;10.00;5.03;;;14.10;99.90;;;;;;5014047;28;20460;-69
2022/07/02 04:46:40;;;;;;;5.93;5.07;;;14.10;99.90;;;;;;5014072;28;20459;-69
2022/07/02 04:49:05;;;;;;;8.25;5.07;;;14.30;99.90;;;;;;5013848;28;20034;-69
2022/07/02 04:51:31;;;;;;;8.02;4.75;;;14.50;99.90;;;;;;5013618;28;20052;-69
2022/07/02 04:53:57;;;;;;;8.77;6.25;;;14.60;99.90;;;;;;5013695;28;20046;-69
2022/07/02 04:56:24;;;;;;;9.18;4.85;;;14.90;99.90;;;;;;5013970;28;20042;-69
2022/07/02 04:58:50;;;;;;;10.02;6.18;;;15.10;99.90;;;;;;5013790;28;20042;-69
2022/07/02 05:01:16;;;;;;;8.48;6.13;;;15.30;99.90;;;;;;5012305;28;20042;-70
2022/07/02 05:03:42;;;;;;;9.45;5.82;;;15.60;99.90;;;;;;5013606;28;20042;-69
2022/07/02 05:06:07;;;;;;;7.28;5.20;;;15.80;99.90;;;;;;5013578;28;20499;-69
2022/07/02 05:08:33;;;;;;;6.25;5.47;;;16.00;99.90;;;;;;5013191;28;20038;-69
2022/07/02 05:10:58;;;;;;;6.28;5.05;;;16.30;99.90;;;;;;5013317;28;20484;-69
2022/07/02 05:13:24;;;;;;;8.55;5.55;;;16.70;99.90;;;;;;5013530;28;20041;-69
2022/07/02 05:15:50;;;;;;;14.25;6.07;;;16.80;99.90;;;;;;5013445;28;20422;-71
2022/07/02 05:18:16;;;;;;;7.72;6.03;;;17.20;99.90;;;;;;5013424;28;20078;-69
2022/07/02 05:20:42;;;;;;;8.82;6.18;;;17.40;99.90;;;;;;5013005;28;20121;-69
2022/07/02 05:23:08;;;;;;;8.10;5.88;;;17.60;99.90;;;;;;5013091;28;20034;-69
2022/07/02 05:25:34;;;;;;;8.50;6.05;;;18.00;99.90;;;;;;5013443;28;20077;-69
2022/07/02 05:27:59;;;;;;;7.18;5.53;;;18.20;99.90;;;;;;5013386;28;20069;-69
2022/07/02 05:30:25;;;;;;;7.70;5.35;;;18.40;99.90;;;;;;5012948;28;20117;-69
2022/07/02 05:32:51;;;;;;;8.88;4.93;;;18.70;99.90;;;;;;5012966;28;20515;-69
2022/07/02 05:35:17;;;;;;;6.07;5.28;;;18.90;99.90;;;;;;5013097;28;20042;-69
2022/07/02 05:37:42;;;;;;;9.93;5.60;;;19.10;99.90;;;;;;5012914;28;20048;-69
2022/07/02 05:40:09;;;;;;;8.60;5.60;;;19.20;99.90;;;;;;5012885;28;20033;-69
2022/07/02 05:42:34;;;;;;;8.02;4.78;;;19.30;99.90;;;;;;5012870;28;20061;-69
2022/07/02 05:45:00;;;;;;;8.02;4.95;;;19.20;99.90;;;;;;5012979;28;20037;-69
2022/07/02 05:47:26;;;;;;;6.47;4.15;;;19.30;99.90;;;;;;5012909;28;20042;-69
2022/07/02 05:49:52;;;;;;;6.63;4.53;;;19.40;99.90;;;;;;5012579;28;20491;-69
2022/07/02 05:52:19;;;;;;;4.40;3.45;;;19.80;99.90;;;;;;5012555;28;20610;-69
2022/07/02 05:54:45;;;;;;;9.95;4.50;;;19.90;99.90;;;;;;5012970;28;20065;-69
2022/07/02 05:57:10;;;;;;;7.70;4.60;;;20.10;99.90;;;;;;5012844;28;20491;-70
2022/07/02 05:59:36;;;;;;;5.07;4.50;;;20.10;99.90;;;;;;5012391;28;20048;-69
2022/07/02 06:02:05;;;;;;;7.18;3.90;;;20.10;99.90;;;;;;5012577;28;20521;-70
2022/07/02 06:04:32;;;;;;;4.97;3.50;;;20.30;99.90;;;;;;5012661;28;20069;-70
2022/07/02 06:09:43;;;;;;;5.50;3.47;;;20.90;98.90;;;;;;5012347;28;20050;-69
2022/07/02 06:12:09;;;;;;;8.88;3.92;;;20.80;98.40;;;;;;5012422;28;20041;-70
2022/07/02 06:14:34;;;;;;;7.13;3.75;;;21.10;98.50;;;;;;5012389;28;20034;-70
2022/07/02 06:17:00;;;;;;;7.80;3.60;;;21.20;98.30;;;;;;5012378;28;20041;-70
2022/07/02 06:19:26;;;;;;;8.27;3.60;;;21.50;97.30;;;;;;5011351;28;20045;-70
2022/07/02 06:21:53;;;;;;;5.82;3.90;;;21.90;96.80;;;;;;5012408;28;20041;-70
2022/07/02 06:24:18;;;;;;;5.82;3.75;;;21.90;96.00;;;;;;5012339;28;20049;-67
2022/07/02 06:26:44;;;;;;;7.07;3.33;;;21.90;95.60;;;;;;5012270;28;20417;-67
2022/07/02 06:29:09;;;;;;;7.18;2.63;;;21.70;95.50;;;;;;5012030;28;20100;-67
2022/07/02 06:31:36;;;;;;;6.72;3.13;;;21.70;94.90;;;;;;5011838;28;20462;-67
2022/07/02 06:34:02;;;;;;;9.20;2.80;;;21.80;94.60;;;;;;5043572;28;20050;-67
2022/07/02 06:36:28;;;;;;;9.77;3.47;;;21.90;94.90;;;;;;5010776;28;20038;-67
2022/07/02 06:38:54;;;;;;;5.82;2.47;;;22.10;94.20;;;;;;5012204;28;20042;-67
2022/07/02 06:44:06;;;;;;;6.93;2.42;;;22.50;93.00;;;;;;5041961;23;20049;-72
2022/07/02 06:46:33;;;;;;;4.95;2.50;;;22.80;93.50;;;;;;5063988;28;20044;-74
2022/07/02 06:48:59;;;;;;;4.95;2.50;;;23.00;92.20;;;;;;5031800;28;20033;-74
2022/07/02 06:51:25;;;;;;;5.25;1.98;;;23.30;91.50;;;;;;5029756;28;20046;-74
2022/07/02 06:53:50;;;;;;;6.82;2.63;;;23.40;89.80;;;;;;5032056;28;20033;-74
2022/07/02 06:56:16;;;;;;;4.45;2.67;;;23.30;89.60;;;;;;5030601;28;20509;-73
2022/07/02 06:58:41;;;;;;;4.60;2.22;;;23.40;89.50;;;;;;5031695;28;20038;-73
2022/07/02 07:01:07;;;;;;;8.25;2.70;;;23.50;87.80;;;;;;5031361;28;20042;-73
2022/07/02 07:03:33;;;;;;;2.75;1.70;;;23.50;87.90;;;;;;5032070;28;20120;-72
2022/07/02 07:05:58;;;;;;;3.60;1.80;;;23.60;87.60;;;;;;5030602;28;20045;-73
2022/07/02 07:08:24;;;;;;;3.00;1.70;;;23.70;86.40;;;;;;5031881;28;20498;-73
2022/07/02 07:10:49;;;;;;;6.50;1.98;;;23.50;82.80;;;;;;5031203;28;20041;-74
2022/07/02 07:13:15;;;;;;;7.53;2.30;;;23.00;82.50;;;;;;5031402;28;20037;-74
2022/07/02 07:15:40;;;;;;;3.35;1.80;;;23.00;82.10;;;;;;5031480;28;20048;-74
2022/07/02 07:18:06;;;;;;;3.95;1.77;;;23.10;81.30;;;;;;5030512;28;20045;-72
2022/07/02 07:20:32;;;;;;;9.13;1.58;;;23.40;82.00;;;;;;5031332;28;20552;-74
2022/07/02 07:22:58;;;;;;;3.53;1.50;;;23.40;79.90;;;;;;5031546;28;20042;-74
2022/07/02 07:25:23;;;;;;;7.10;1.25;;;23.80;79.50;;;;;;5031547;28;20053;-73
2022/07/02 07:27:49;;;;;;;4.63;1.38;;;23.90;77.50;;;;;;5031406;28;20406;-73
2022/07/02 07:30:15;;;;;;;2.85;1.30;;;24.20;77.60;;;;;;5030016;28;20100;-73
2022/07/02 07:32:41;;;;;;;3.55;0.93;;;24.30;75.30;;;;;;5035133;28;20041;-73
2022/07/02 07:35:07;;;;;;;3.17;0.80;;;24.10;73.40;;;;;;5035180;28;20038;-73
2022/07/02 07:37:35;;;;;;;2.15;0.98;;;24.30;74.50;;;;;;5034016;28;20042;-74
2022/07/02 07:40:02;;;;;;;4.03;1.40;;;24.40;72.00;;;;;;5033521;28;20053;-73
2022/07/02 07:42:28;;;;;;;3.75;1.70;;;24.40;70.60;;;;;;5033504;28;20049;-73
2022/07/02 07:44:54;;;;;;;3.85;1.20;;;24.20;70.70;;;;;;5034865;28;20111;-74
2022/07/02 07:47:19;;;;;;;1.27;0.68;;;24.00;69.40;;;;;;5030571;28;20041;-73
2022/07/02 07:49:45;;;;;;;11.02;1.67;;;24.00;68.50;;;;;;5026369;28;20406;-73
2022/07/02 07:52:11;;;;;;;1.83;1.00;;;24.00;70.00;;;;;;5026192;28;20431;-74
2022/07/02 07:54:37;;;;;;;3.47;0.75;;;23.80;68.70;;;;;;5024133;28;20044;-74
2022/07/02 07:57:03;;;;;;;3.15;0.90;;;23.50;68.10;;;;;;5029892;28;20073;-74
2022/07/02 07:59:29;;;;;;;1.20;0.57;;;23.30;68.20;;;;;;5030366;28;20128;-74
2022/07/02 08:01:55;;;;;;;1.50;0.77;;;23.60;69.00;;;;;;5034841;28;20541;-73
2022/07/02 08:04:20;;;;;;;5.40;0.93;;;23.60;69.40;;;;;;5034676;28;20413;-73
2022/07/02 08:06:46;;;;;;;3.58;0.90;;;23.90;69.10;;;;;;5028546;28;20065;-73
2022/07/02 08:09:12;;;;;;;3.63;0.80;;;24.10;68.70;;;;;;5033372;28;20041;-73
2022/07/02 08:11:37;;;;;;;4.18;1.10;;;24.40;66.80;;;;;;5028152;28;20446;-73
2022/07/02 08:14:04;;;;;;;2.33;0.63;;;24.60;68.10;;;;;;5034366;28;20033;-74
2022/07/02 08:16:30;;;;;;;1.88;0.70;;;24.30;66.10;;;;;;5034530;28;20033;-74
2022/07/02 08:18:56;;;;;;;1.83;0.90;;;24.20;66.10;;;;;;5034477;28;20069;-74
2022/07/02 08:21:22;;;;;;;3.40;0.70;;;23.90;65.30;;;;;;5034193;28;20588;-74
2022/07/02 08:23:47;;;;;;;1.98;0.80;;;24.00;66.30;;;;;;5032951;28;20048;-73
2022/07/02 08:26:13;;;;;;;4.43;1.15;;;24.00;66.10;;;;;;5031855;28;20041;-73
2022/07/02 08:28:39;;;;;;;2.33;0.50;;;24.00;67.10;;;;;;5027576;28;20425;-74
2022/07/02 08:31:05;;;;;;;3.58;0.70;;;24.10;68.90;;;;;;5025990;28;20470;-74
2022/07/02 08:33:30;;;;;;;3.15;0.80;;;24.00;66.30;;;;;;5032739;28;20042;-74
2022/07/02 08:35:56;;;;;;;1.33;0.57;;;24.00;66.50;;;;;;5028103;28;20068;-74
2022/07/02 08:38:22;;;;;;;2.28;1.25;;;24.00;66.60;;;;;;5023563;28;20021;-74
2022/07/02 08:40:48;;;;;;;2.72;0.60;;;24.00;66.20;;;;;;5013953;28;20557;-74
2022/07/02 08:43:16;;;;;;;2.50;0.40;;;24.00;65.60;;;;;;5013560;28;20510;-74
2022/07/02 08:45:43;;;;;;;2.10;0.43;;;23.80;63.60;;;;;;5016694;28;20080;-75
2022/07/02 08:48:10;;;;;;;2.30;0.65;;;23.90;65.00;;;;;;5014035;28;20033;-74
2022/07/02 08:50:36;;;;;;;1.48;0.60;;;24.30;64.90;;;;;;5013805;28;20045;-74
2022/07/02 08:53:07;;;;;;;2.97;0.57;;;24.00;64.20;;;;;;5012549;28;20042;-74
2022/07/02 08:55:34;;;;;;;0.77;0.40;;;24.20;64.30;;;;;;5013820;28;20049;-74
2022/07/02 08:58:00;;;;;;;1.38;0.55;;;24.60;61.70;;;;;;5020449;28;20049;-74
2022/07/02 09:00:27;;;;;;;2.88;0.45;;;24.50;60.70;;;;;;5022495;28;20030;-74
2022/07/02 09:02:55;;;;;;;0.88;0.43;;;24.30;60.10;;;;;;5024312;28;20120;-74
2022/07/02 09:05:21;;;;;;;3.45;0.20;;;24.30;60.00;;;;;;5023049;28;20454;-75
2022/07/02 09:07:48;;;;;;;1.90;0.40;;;24.10;59.20;;;;;;5031638;28;20038;-75
2022/07/02 09:10:17;;;;;;;1.23;0.40;;;24.30;60.40;;;;;;5021024;28;20045;-75
2022/07/02 09:12:43;;;;;;;2.20;0.30;;;24.20;58.60;;;;;;5013522;28;20050;-75
2022/07/02 09:15:10;;;;;;;3.60;0.68;;;24.30;60.10;;;;;;5012081;28;20044;-80
2022/07/02 09:17:36;;;;;;;2.78;0.40;;;24.40;59.30;;;;;;4997776;28;20041;-81
2022/07/02 09:20:04;;;;;;;0.65;0.28;;;24.30;59.30;;;;;;5013244;28;20443;-81
2022/07/02 09:22:42;;;;;;;0.98;0.35;;;24.20;58.50;;;;;;5013778;28;20113;-81
2022/07/02 09:25:12;;;;;;;2.38;0.32;;;24.20;58.40;;;;;;5013571;28;20034;-81
2022/07/02 09:27:38;;;;;;;3.45;0.40;;;24.00;57.80;;;;;;5013821;28;20376;-80
2022/07/02 09:30:06;;;;;;;2.30;0.47;;;23.90;58.90;;;;;;5013194;28;20096;-81
2022/07/02 09:32:43;;;;;;;1.70;0.20;;;23.90;57.60;;;;;;5014727;28;20046;-81
2022/07/02 09:35:20;;;;;;;1.10;0.47;;;24.10;59.90;;;;;;5013579;28;20511;-81
2022/07/02 09:37:47;;;;;;;1.75;0.32;;;24.00;59.70;;;;;;5017242;28;20470;-80
2022/07/02 09:40:14;;;;;;;2.80;0.30;;;24.00;59.50;;;;;;5012887;28;20441;-80
2022/07/02 09:42:45;;;;;;;1.30;0.50;;;24.00;59.30;;;;;;5034234;28;20037;-80
2022/07/02 09:45:11;;;;;;;6.13;0.35;;;23.60;58.30;;;;;;5020216;28;20422;-81
2022/07/02 09:47:38;;;;;;;0.82;0.17;;;23.60;58.00;;;;;;5035087;28;20045;-81
2022/07/02 09:50:09;;;;;;;2.97;0.80;;;23.80;58.80;;;;;;5033869;28;20486;-81
2022/07/02 09:52:36;;;;;;;2.70;0.63;;;23.60;59.40;;;;;;5032989;28;20041;-80
2022/07/02 09:55:03;;;;;;;0.73;0.20;;;23.40;57.60;;;;;;5031561;28;20042;-80
2022/07/02 09:57:29;;;;;;;1.58;0.55;;;23.50;57.70;;;;;;5032955;28;20101;-80
2022/07/02 10:00:06;;;;;;;0.63;0.30;;;23.70;58.50;;;;;;5016070;28;20087;-81
2022/07/02 10:02:35;;;;;;;0.47;0.28;;;23.60;58.00;;;;;;5034703;28;20049;-80
2022/07/02 10:05:04;;;;;;;0.88;0.20;;;23.70;58.30;;;;;;5032825;28;20037;-81
2022/07/02 10:07:31;;;;;;;0.65;0.30;;;23.80;58.20;;;;;;5033259;28;20544;-79
2022/07/02 10:10:00;;;;;;;0.50;0.20;;;23.80;57.10;;;;;;5033662;28;20051;-79
2022/07/02 10:12:25;;;;;;;0.80;0.20;;;23.80;57.80;;;;;;5032484;28;20083;-80
2022/07/02 10:14:52;;;;;;;1.98;0.50;;;23.80;57.10;;;;;;5015771;28;20073;-80
2022/07/02 10:17:18;;;;;;;1.85;0.38;;;23.60;56.60;;;;;;5015401;28;20064;-80
2022/07/02 10:19:44;;;;;;;1.50;0.43;;;23.50;57.50;;;;;;5032167;28;20045;-79
2022/07/02 10:22:10;;;;;;;3.03;0.57;;;23.40;57.70;;;;;;5016240;28;20041;-80
2022/07/02 10:24:39;;;;;;;2.72;0.47;;;23.40;58.10;;;;;;5032996;28;20044;-80
2022/07/02 10:27:04;;;;;;;1.42;0.40;;;23.40;58.40;;;;;;5016333;28;20041;-80
2022/07/02 10:29:30;;;;;;;1.13;0.40;;;23.50;58.60;;;;;;5032648;28;20062;-80
2022/07/02 10:32:03;;;;;;;1.17;0.68;;;23.50;59.60;;;;;;5032831;28;20147;-79
2022/07/02 10:34:42;;;;;;;3.47;0.40;;;23.30;58.00;;;;;;5033951;28;20033;-81
2022/07/02 10:37:08;;;;;;;1.17;0.30;;;23.40;60.10;;;;;;5033801;28;20042;-80
2022/07/02 10:39:41;;;;;;;2.63;0.30;;;23.50;59.90;;;;;;5033067;28;20042;-81
2022/07/02 10:42:08;;;;;;;0.93;0.40;;;23.40;60.10;;;;;;5034536;28;20117;-80
2022/07/02 10:44:41;;;;;;;0.60;0.30;;;23.40;62.20;;;;;;5032335;28;20045;-80
2022/07/02 10:47:18;;;;;;;2.15;0.30;;;23.00;58.90;;;;;;5033934;28;20038;-80
2022/07/02 10:49:43;;;;;;;3.50;0.75;;;23.00;60.50;;;;;;5032444;28;20044;-80
2022/07/02 10:52:09;;;;;;;1.88;0.82;;;23.00;61.30;;;;;;5032619;28;20038;-80
2022/07/02 10:54:34;;;;;;;4.35;0.88;;;22.60;60.00;;;;;;5033811;28;20105;-80
2022/07/02 10:57:00;;;;;;;1.58;0.40;;;22.70;61.10;;;;;;5032855;28;20036;-80
2022/07/02 10:59:33;;;;;;;1.73;0.40;;;22.70;61.70;;;;;;5033725;28;20533;-81
2022/07/02 11:02:00;;;;;;;4.07;0.63;;;22.80;61.10;;;;;;5031790;28;20590;-77
2022/07/02 11:04:26;;;;;;;3.05;0.73;;;23.10;60.40;;;;;;5030739;28;20042;-76
2022/07/02 11:07:04;;;;;;;0.88;0.20;;;23.40;60.20;;;;;;5035138;28;20072;-81
2022/07/02 11:09:29;;;;;;;3.53;0.40;;;23.50;59.00;;;;;;5039059;28;20510;-79
2022/07/02 11:12:00;;;;;;;0.80;0.30;;;23.40;57.60;;;;;;5039213;28;20049;-80
2022/07/02 11:14:28;;;;;;;1.02;0.50;;;23.40;57.90;;;;;;5039104;28;20049;-80
2022/07/02 11:16:54;;;;;;;2.22;0.28;;;23.50;57.80;;;;;;5022228;28;20449;-81
2022/07/02 11:19:27;;;;;;;0.77;0.35;;;23.70;59.00;;;;;;5039537;28;20029;-80
2022/07/02 11:21:55;;;;;;;3.20;0.77;;;23.50;55.80;;;;;;5037203;28;20072;-79
2022/07/02 11:24:22;;;;;;;1.08;0.60;;;23.70;56.50;;;;;;5038409;28;20045;-79
2022/07/02 11:26:48;;;;;;;1.77;0.32;;;23.70;55.40;;;;;;5037618;28;20037;-81
2022/07/02 11:29:14;;;;;;;2.83;0.55;;;23.70;56.10;;;;;;5035139;28;20407;-80
2022/07/02 11:31:43;;;;;;;1.20;0.45;;;23.70;57.10;;;;;;5035236;28;20069;-79
2022/07/02 11:34:09;;;;;;;2.72;0.40;;;23.70;57.10;;;;;;5035249;28;20482;-79
2022/07/02 11:36:38;;;;;;;0.95;0.32;;;23.60;56.00;;;;;;5037208;28;20045;-79
2022/07/02 11:39:10;;;;;;;1.42;0.30;;;23.60;55.50;;;;;;5035357;28;20091;-80
2022/07/02 11:41:37;;;;;;;1.05;0.35;;;23.70;58.00;;;;;;5035618;28;20132;-80
2022/07/02 11:44:20;;;;;;;1.05;0.30;;;23.90;57.80;;;;;;5035608;28;20048;-79
2022/07/02 11:47:00;;;;;;;1.50;0.40;;;24.00;56.90;;;;;;5024117;28;20602;-79
2022/07/02 11:49:28;;;;;;;0.88;0.32;;;24.10;58.00;;;;;;5023950;28;20042;-78
2022/07/02 11:51:55;;;;;;;1.75;0.30;;;24.00;56.40;;;;;;5023424;28;20053;-79
2022/07/02 11:54:21;;;;;;;3.03;0.40;;;24.00;56.90;;;;;;5020497;28;20034;-79
2022/07/02 11:56:49;;;;;;;0.95;0.55;;;23.80;56.80;;;;;;5020395;28;20554;-79
2022/07/02 11:59:16;;;;;;;1.48;0.47;;;23.70;57.60;;;;;;5015173;28;20092;-79
2022/07/02 12:01:43;;;;;;;1.17;0.63;;;23.60;58.20;;;;;;5015580;28;20049;-79
2022/07/02 12:04:11;;;;;;;1.27;0.40;;;23.60;58.70;;;;;;5014777;28;20096;-80
2022/07/02 12:06:42;;;;;;;2.67;0.93;;;23.70;57.60;;;;;;5016061;28;20073;-80
2022/07/02 12:09:10;;;;;;;2.60;0.40;;;23.80;56.60;;;;;;5015804;28;20125;-79
2022/07/02 12:11:38;;;;;;;0.60;0.25;;;23.90;56.50;;;;;;5016574;28;20499;-79
2022/07/02 12:14:06;;;;;;;3.60;0.38;;;23.70;57.90;;;;;;5030792;28;20041;-79
2022/07/02 12:16:33;;;;;;;3.05;0.50;;;23.60;55.30;;;;;;5008322;28;20383;-79
2022/07/02 12:19:13;;;;;;;1.55;1.42;;;23.40;55.30;;;;;;5024798;28;20034;-79
2022/07/02 12:21:49;;;;;;;1.27;0.20;;;23.50;55.40;;;;;;5026254;28;20073;-79
2022/07/02 12:24:24;;;;;;;0.73;0.20;;;23.60;57.50;;;;;;5026488;28;20053;-79
2022/07/02 12:27:08;;;;;;;2.45;0.50;;;23.60;58.80;;;;;;5015145;28;20045;-79
2022/07/02 12:29:58;;;;;;;1.83;0.40;;;23.50;58.10;;;;;;4998214;28;20137;-79
2022/07/02 12:32:28;;;;;;;1.20;0.30;;;23.50;57.50;;;;;;5015591;28;20077;-80
2022/07/02 12:34:59;;;;;;;1.45;0.43;;;23.50;58.00;;;;;;5023205;28;20038;-80
2022/07/02 12:37:38;;;;;;;1.17;0.57;;;23.40;57.70;;;;;;5025244;28;20030;-80
2022/07/02 12:40:09;;;;;;;3.00;0.40;;;23.20;58.20;;;;;;5018485;28;20036;-80
2022/07/02 12:45:05;;;;;;;2.22;0.50;;;22.90;59.00;;;;;;5051818;23;20046;-71
2022/07/02 12:47:36;;;;;;;0.70;0.30;;;23.00;59.70;;;;;;5033919;28;20095;-72
2022/07/02 12:50:05;;;;;;;2.75;0.50;;;23.10;59.40;;;;;;5032196;28;20079;-72
2022/07/02 12:52:50;;;;;;;3.53;0.70;;;23.30;60.20;;;;;;5031936;28;20053;-73
2022/07/02 12:55:28;;;;;;;4.40;0.52;;;23.20;59.10;;;;;;5013798;28;20034;-72